Time;durP1;ratioP1;P1;durP2;ratioP2;P2;SDS_P1;SDS_P2;PMS_P1;PMS_P2;Temp;Humidity;BMP_temperature;BMP_pressure;BME280_temperature;BME280_humidity;BME280_pressure;Samples;Min_cycle;Max_cycle;Signal;HPM_P1;HPM_P2
2023/06/19 00:01:47;;;;;;;4.63;4.00;;;;;;;;;;4927459;28;20040;-41
2023/06/19 00:04:13;;;;;;;7.63;4.38;;;;;;;;;;4933679;28;20040;-42
2023/06/19 00:06:38;;;;;;;8.18;4.20;;;;;;;;;;4933100;28;20039;-40
2023/06/19 00:09:04;;;;;;;5.35;4.00;;;;;;;;;;4936692;28;20058;-40
2023/06/19 00:11:30;;;;;;;4.72;4.32;;;;;;;;;;4936412;28;20075;-42
2023/06/19 00:13:55;;;;;;;5.65;4.05;;;;;;;;;;4921369;28;20031;-41
2023/06/19 00:16:21;;;;;;;9.20;4.05;;;;;;;;;;4930647;28;20075;-41
2023/06/19 00:18:46;;;;;;;4.63;4.18;;;;;;;;;;4933169;28;20042;-40
2023/06/19 00:21:12;;;;;;;5.07;4.50;;;;;;;;;;4932618;28;20035;-41
2023/06/19 00:23:37;;;;;;;4.13;3.83;;;;;;;;;;4932120;29;20652;-41
2023/06/19 00:26:03;;;;;;;4.60;4.20;;;;;;;;;;4935989;28;20036;-40
2023/06/19 00:28:30;;;;;;;10.02;4.18;;;;;;;;;;4932623;29;20036;-40
2023/06/19 00:30:55;;;;;;;9.52;4.50;;;;;;;;;;4932043;29;20106;-41
2023/06/19 00:33:21;;;;;;;4.13;3.83;;;;;;;;;;4924116;28;20047;-40
2023/06/19 00:35:48;;;;;;;4.45;4.05;;;;;;;;;;4922603;28;20424;-41
2023/06/19 00:38:13;;;;;;;4.45;3.80;;;;;;;;;;4947567;28;20102;-41
2023/06/19 00:40:39;;;;;;;4.45;3.97;;;;;;;;;;4933405;28;20037;-40
2023/06/19 00:43:05;;;;;;;4.40;4.00;;;;;;;;;;4922351;28;20034;-42
2023/06/19 00:45:31;;;;;;;7.50;3.80;;;;;;;;;;4916792;28;20550;-40
2023/06/19 00:47:58;;;;;;;4.55;4.15;;;;;;;;;;4941864;28;20056;-40
2023/06/19 00:50:24;;;;;;;4.85;4.13;;;;;;;;;;4939816;28;20036;-45
2023/06/19 00:52:50;;;;;;;5.00;4.10;;;;;;;;;;4967954;28;20050;-40
2023/06/19 00:55:17;;;;;;;5.57;4.00;;;;;;;;;;4958676;28;20059;-41
2023/06/19 00:57:43;;;;;;;4.40;3.90;;;;;;;;;;4919628;28;20043;-43
2023/06/19 01:00:11;;;;;;;4.50;4.10;;;;;;;;;;4926520;29;20031;-40
2023/06/19 01:02:37;;;;;;;4.78;3.88;;;;;;;;;;4932296;28;20040;-42
2023/06/19 01:05:03;;;;;;;5.20;3.80;;;;;;;;;;4961415;28;20571;-41
2023/06/19 01:07:32;;;;;;;4.50;4.10;;;;;;;;;;4934032;28;20040;-40
2023/06/19 01:10:04;;;;;;;5.20;3.97;;;;;;;;;;4936039;28;20585;-44
2023/06/19 01:12:38;;;;;;;6.28;4.35;;;;;;;;;;4934570;28;20066;-41
2023/06/19 01:15:05;;;;;;;8.63;4.75;;;;;;;;;;4936070;29;20053;-40
2023/06/19 01:17:30;;;;;;;8.35;4.13;;;;;;;;;;4936665;28;20040;-42
2023/06/19 01:19:57;;;;;;;6.35;4.72;;;;;;;;;;4935394;28;20118;-40
2023/06/19 01:22:31;;;;;;;4.78;4.38;;;;;;;;;;4950011;28;20040;-42
2023/06/19 01:24:57;;;;;;;5.85;3.97;;;;;;;;;;4931267;28;20466;-40
2023/06/19 01:27:31;;;;;;;4.80;4.35;;;;;;;;;;4940511;28;20036;-42
2023/06/19 01:30:02;;;;;;;7.30;4.57;;;;;;;;;;4935049;28;20058;-40
2023/06/19 01:32:48;;;;;;;5.50;4.60;;;;;;;;;;4930419;28;20048;-40
2023/06/19 01:35:17;;;;;;;5.22;4.70;;;;;;;;;;4930587;29;20060;-41
2023/06/19 01:37:43;;;;;;;5.43;4.78;;;;;;;;;;4939166;28;20074;-40
2023/06/19 01:40:10;;;;;;;6.13;4.60;;;;;;;;;;4955874;28;20035;-40
2023/06/19 01:42:38;;;;;;;10.13;4.63;;;;;;;;;;4938644;28;20074;-40
2023/06/19 01:45:06;;;;;;;4.90;4.45;;;;;;;;;;4965257;28;20394;-40
2023/06/19 01:47:31;;;;;;;5.05;4.20;;;;;;;;;;4951419;28;20036;-40
2023/06/19 01:49:57;;;;;;;5.55;4.55;;;;;;;;;;4941290;28;20387;-40
2023/06/19 01:52:24;;;;;;;7.10;4.38;;;;;;;;;;4933405;28;20035;-41
2023/06/19 01:54:50;;;;;;;8.57;5.20;;;;;;;;;;4946932;28;20027;-41
2023/06/19 01:57:16;;;;;;;5.95;4.15;;;;;;;;;;4934013;28;20044;-41
2023/06/19 01:59:41;;;;;;;6.03;4.60;;;;;;;;;;4935003;28;20042;-41
2023/06/19 02:02:07;;;;;;;6.15;4.93;;;;;;;;;;4935360;28;20040;-43
2023/06/19 02:04:33;;;;;;;6.90;4.72;;;;;;;;;;4959615;28;20047;-40
2023/06/19 02:06:59;;;;;;;5.35;4.85;;;;;;;;;;4929916;28;20398;-41
2023/06/19 02:09:24;;;;;;;6.25;4.75;;;;;;;;;;4934856;28;20020;-40
2023/06/19 02:11:50;;;;;;;6.80;4.85;;;;;;;;;;4919006;28;20075;-40
2023/06/19 02:14:15;;;;;;;5.45;4.68;;;;;;;;;;4934464;28;20031;-40
2023/06/19 02:16:43;;;;;;;9.27;5.32;;;;;;;;;;4964566;28;20035;-42
2023/06/19 02:19:10;;;;;;;6.65;5.55;;;;;;;;;;4936302;29;20092;-40
2023/06/19 02:21:36;;;;;;;7.18;5.30;;;;;;;;;;4935698;28;20040;-41
2023/06/19 02:24:01;;;;;;;5.50;5.00;;;;;;;;;;4943551;28;20477;-44
2023/06/19 02:26:29;;;;;;;8.18;5.10;;;;;;;;;;4941490;28;20135;-41
2023/06/19 02:28:55;;;;;;;6.60;5.10;;;;;;;;;;4935216;28;20046;-40
2023/06/19 02:31:23;;;;;;;5.70;5.20;;;;;;;;;;4933402;28;20090;-41
2023/06/19 02:33:49;;;;;;;7.55;5.30;;;;;;;;;;4926731;28;20055;-42
2023/06/19 02:36:19;;;;;;;6.22;5.22;;;;;;;;;;4934209;28;20044;-40
2023/06/19 02:38:50;;;;;;;6.57;4.82;;;;;;;;;;4933742;28;20026;-41
2023/06/19 02:41:16;;;;;;;7.70;5.20;;;;;;;;;;4945584;28;20458;-42
2023/06/19 02:43:43;;;;;;;6.45;4.80;;;;;;;;;;4938120;28;20093;-42
2023/06/19 02:46:08;;;;;;;10.15;5.28;;;;;;;;;;4960314;28;20065;-40
2023/06/19 02:48:34;;;;;;;12.50;5.50;;;;;;;;;;4976038;28;20025;-40
2023/06/19 02:51:00;;;;;;;6.18;5.22;;;;;;;;;;4941088;28;20048;-43
2023/06/19 02:53:25;;;;;;;6.90;5.13;;;;;;;;;;4935906;28;20028;-41
2023/06/19 02:55:51;;;;;;;5.43;5.03;;;;;;;;;;4928780;28;20031;-41
2023/06/19 02:58:16;;;;;;;7.85;5.55;;;;;;;;;;4933374;28;20115;-40
2023/06/19 03:00:42;;;;;;;6.22;5.65;;;;;;;;;;4943863;28;20036;-40
2023/06/19 03:03:07;;;;;;;8.85;5.47;;;;;;;;;;4979767;28;20029;-43
2023/06/19 03:05:33;;;;;;;9.52;5.45;;;;;;;;;;4944174;28;20027;-40
2023/06/19 03:07:58;;;;;;;6.78;4.90;;;;;;;;;;4951996;28;20028;-40
2023/06/19 03:10:23;;;;;;;7.88;5.35;;;;;;;;;;4934579;28;20040;-40
2023/06/19 03:12:49;;;;;;;5.45;4.90;;;;;;;;;;4932157;28;20043;-40
2023/06/19 03:15:14;;;;;;;8.70;5.53;;;;;;;;;;4934239;28;20027;-40
2023/06/19 03:17:40;;;;;;;8.73;5.72;;;;;;;;;;4938247;28;20032;-40
2023/06/19 03:20:06;;;;;;;6.45;5.50;;;;;;;;;;4935896;28;20030;-40
2023/06/19 03:22:31;;;;;;;5.32;4.95;;;;;;;;;;4917086;28;20494;-40
2023/06/19 03:24:57;;;;;;;5.97;5.40;;;;;;;;;;4964694;28;20093;-42
2023/06/19 03:27:26;;;;;;;5.68;5.28;;;;;;;;;;4929970;29;20040;-41
2023/06/19 03:29:52;;;;;;;7.88;5.35;;;;;;;;;;4931262;29;20028;-43
2023/06/19 03:32:19;;;;;;;5.80;5.30;;;;;;;;;;4933049;29;20393;-41
2023/06/19 03:34:44;;;;;;;6.53;5.05;;;;;;;;;;4934020;28;20143;-40
2023/06/19 03:37:09;;;;;;;6.43;5.05;;;;;;;;;;4916603;28;20067;-43
2023/06/19 03:39:35;;;;;;;6.65;5.55;;;;;;;;;;4926496;28;20031;-40
2023/06/19 03:42:00;;;;;;;6.60;5.47;;;;;;;;;;4934417;28;20040;-40
2023/06/19 03:44:26;;;;;;;7.72;5.35;;;;;;;;;;4937501;28;20111;-40
2023/06/19 03:46:51;;;;;;;5.55;5.05;;;;;;;;;;4991877;28;20043;-40
2023/06/19 03:49:17;;;;;;;6.47;5.43;;;;;;;;;;4950773;28;20031;-40
2023/06/19 03:51:43;;;;;;;6.88;5.25;;;;;;;;;;4945718;28;20103;-42
2023/06/19 03:54:08;;;;;;;6.00;5.55;;;;;;;;;;4936408;28;20536;-42
2023/06/19 03:56:33;;;;;;;9.07;5.53;;;;;;;;;;4917103;28;20044;-40
2023/06/19 03:58:59;;;;;;;5.63;5.10;;;;;;;;;;4969621;28;20055;-41
2023/06/19 04:01:24;;;;;;;10.88;5.43;;;;;;;;;;4931673;28;20048;-43
2023/06/19 04:03:50;;;;;;;6.97;5.55;;;;;;;;;;4933016;29;20515;-42
2023/06/19 04:06:15;;;;;;;6.72;4.85;;;;;;;;;;4934459;29;20043;-39
2023/06/19 04:08:41;;;;;;;6.05;5.35;;;;;;;;;;4965038;28;20040;-40
2023/06/19 04:11:06;;;;;;;6.93;5.07;;;;;;;;;;4940218;28;20050;-41
2023/06/19 04:13:31;;;;;;;5.82;5.15;;;;;;;;;;4981325;28;20032;-40
2023/06/19 04:15:57;;;;;;;5.75;5.35;;;;;;;;;;4945421;28;20036;-40
2023/06/19 04:18:22;;;;;;;5.47;4.93;;;;;;;;;;4946702;28;20031;-42
2023/06/19 04:20:48;;;;;;;10.90;5.07;;;;;;;;;;4938520;28;20031;-40
2023/06/19 04:23:13;;;;;;;5.80;5.20;;;;;;;;;;4923813;28;20090;-43
2023/06/19 04:25:39;;;;;;;7.00;5.32;;;;;;;;;;4936314;28;20166;-41
2023/06/19 04:28:04;;;;;;;7.40;5.28;;;;;;;;;;4933938;28;20405;-41
2023/06/19 04:30:30;;;;;;;6.07;5.45;;;;;;;;;;4947988;28;20039;-42
2023/06/19 04:32:57;;;;;;;6.55;5.28;;;;;;;;;;4917070;28;20642;-40
2023/06/19 04:35:23;;;;;;;5.78;5.18;;;;;;;;;;4937365;28;20048;-40
2023/06/19 04:37:49;;;;;;;7.63;5.55;;;;;;;;;;4948052;28;20046;-41
2023/06/19 04:40:15;;;;;;;5.97;5.45;;;;;;;;;;4937969;28;20035;-40
2023/06/19 04:42:41;;;;;;;5.55;5.05;;;;;;;;;;4934569;28;20054;-42
2023/06/19 04:45:07;;;;;;;6.32;5.38;;;;;;;;;;4957967;28;20163;-41
2023/06/19 04:47:33;;;;;;;5.82;5.03;;;;;;;;;;4958445;28;20036;-40
2023/06/19 04:49:59;;;;;;;7.65;5.53;;;;;;;;;;4943713;28;20401;-43
2023/06/19 04:52:25;;;;;;;6.40;5.40;;;;;;;;;;4926821;28;20510;-43
2023/06/19 04:54:50;;;;;;;5.75;5.20;;;;;;;;;;4904544;28;20107;-41
2023/06/19 04:57:16;;;;;;;5.72;5.13;;;;;;;;;;4937861;28;20111;-46
2023/06/19 04:59:45;;;;;;;6.07;4.97;;;;;;;;;;4931647;28;20032;-44
2023/06/19 05:02:10;;;;;;;8.40;5.43;;;;;;;;;;4934912;28;20052;-42
2023/06/19 05:04:36;;;;;;;5.68;5.10;;;;;;;;;;4933140;28;20094;-41
2023/06/19 05:07:02;;;;;;;5.97;5.38;;;;;;;;;;4942681;28;20046;-41
2023/06/19 05:09:28;;;;;;;8.48;5.43;;;;;;;;;;4949293;28;20027;-41
2023/06/19 05:11:54;;;;;;;8.20;5.35;;;;;;;;;;4932121;28;20070;-45
2023/06/19 05:14:19;;;;;;;7.35;5.38;;;;;;;;;;4930995;28;20170;-41
2023/06/19 05:16:45;;;;;;;6.40;5.63;;;;;;;;;;4950711;28;20036;-41
2023/06/19 05:19:10;;;;;;;7.78;5.78;;;;;;;;;;4935102;28;20027;-42
2023/06/19 05:21:36;;;;;;;6.38;5.15;;;;;;;;;;4917223;28;20044;-42
2023/06/19 05:24:01;;;;;;;12.15;5.53;;;;;;;;;;4929327;28;20035;-40
2023/06/19 05:26:27;;;;;;;7.88;5.70;;;;;;;;;;4935987;28;20036;-39
2023/06/19 05:28:52;;;;;;;6.95;6.18;;;;;;;;;;5004033;28;20048;-41
2023/06/19 05:31:18;;;;;;;8.10;5.38;;;;;;;;;;4935668;28;20051;-40
2023/06/19 05:33:44;;;;;;;6.75;5.35;;;;;;;;;;4943509;29;20078;-44
2023/06/19 05:36:10;;;;;;;6.40;4.90;;;;;;;;;;4977087;28;20042;-46
2023/06/19 05:38:35;;;;;;;7.50;5.20;;;;;;;;;;4946716;28;20460;-40
2023/06/19 05:41:04;;;;;;;8.88;5.20;;;;;;;;;;4935566;28;20070;-43
2023/06/19 05:43:30;;;;;;;8.93;5.32;;;;;;;;;;4959022;28;20092;-40
2023/06/19 05:45:57;;;;;;;10.88;5.10;;;;;;;;;;4927370;28;20048;-40
2023/06/19 05:48:24;;;;;;;6.72;5.55;;;;;;;;;;4971430;28;20024;-40
2023/06/19 05:50:50;;;;;;;6.55;5.03;;;;;;;;;;4959300;28;20076;-40
2023/06/19 05:53:15;;;;;;;6.80;4.85;;;;;;;;;;4933342;29;20106;-41
2023/06/19 05:55:41;;;;;;;5.10;4.60;;;;;;;;;;4917203;28;20445;-41
2023/06/19 05:58:06;;;;;;;6.72;4.97;;;;;;;;;;4947365;28;21093;-41
2023/06/19 06:00:32;;;;;;;6.13;4.40;;;;;;;;;;4946187;28;20033;-42
2023/06/19 06:03:01;;;;;;;6.22;4.88;;;;;;;;;;4934256;28;20039;-41
2023/06/19 06:05:27;;;;;;;5.85;4.78;;;;;;;;;;4935438;28;20074;-40
2023/06/19 06:07:53;;;;;;;5.97;5.15;;;;;;;;;;4932809;28;20428;-41
2023/06/19 06:10:23;;;;;;;9.55;5.45;;;;;;;;;;4928352;29;20028;-45
2023/06/19 06:12:49;;;;;;;8.10;4.63;;;;;;;;;;4944822;28;20040;-43
2023/06/19 06:15:15;;;;;;;11.07;5.40;;;;;;;;;;4934113;28;20032;-42
2023/06/19 06:17:40;;;;;;;7.35;4.70;;;;;;;;;;4932597;29;20054;-44
2023/06/19 06:20:11;;;;;;;6.65;5.18;;;;;;;;;;4931674;28;20035;-43
2023/06/19 06:22:37;;;;;;;6.07;4.73;;;;;;;;;;4955564;28;20094;-40
2023/06/19 06:25:02;;;;;;;9.93;5.13;;;;;;;;;;4945426;28;20031;-45
2023/06/19 06:27:28;;;;;;;7.53;4.55;;;;;;;;;;4963140;28;20035;-42
2023/06/19 06:29:53;;;;;;;6.82;4.95;;;;;;;;;;4931292;28;20086;-41
2023/06/19 06:32:18;;;;;;;13.50;4.80;;;;;;;;;;4933926;28;20456;-41
2023/06/19 06:34:44;;;;;;;4.50;4.10;;;;;;;;;;4918110;28;20456;-41
2023/06/19 06:37:09;;;;;;;13.45;4.95;;;;;;;;;;4934471;28;20093;-41
2023/06/19 06:39:35;;;;;;;8.32;4.38;;;;;;;;;;4946654;28;20072;-41
2023/06/19 06:42:00;;;;;;;16.30;4.68;;;;;;;;;;4954822;28;20048;-41
2023/06/19 06:44:26;;;;;;;5.47;4.68;;;;;;;;;;4935006;28;20031;-40
2023/06/19 06:46:51;;;;;;;4.95;4.50;;;;;;;;;;4901808;28;20035;-41
2023/06/19 06:49:17;;;;;;;6.18;4.32;;;;;;;;;;4936018;28;20023;-43
2023/06/19 06:51:42;;;;;;;4.07;3.58;;;;;;;;;;4958972;28;20043;-43
2023/06/19 06:54:08;;;;;;;6.88;4.40;;;;;;;;;;4927188;28;20020;-41
2023/06/19 06:56:33;;;;;;;6.63;4.22;;;;;;;;;;4930660;28;20127;-41
2023/06/19 06:58:58;;;;;;;4.85;3.80;;;;;;;;;;4934829;28;20075;-41
2023/06/19 07:01:24;;;;;;;5.95;3.95;;;;;;;;;;4931476;28;20459;-43
2023/06/19 07:03:49;;;;;;;5.55;3.60;;;;;;;;;;4950762;28;20068;-41
2023/06/19 07:06:15;;;;;;;4.10;3.70;;;;;;;;;;4937187;28;20039;-42
2023/06/19 07:08:40;;;;;;;7.70;3.60;;;;;;;;;;4945856;28;20035;-42
2023/06/19 07:11:07;;;;;;;4.93;3.63;;;;;;;;;;4952159;28;20044;-42
2023/06/19 07:13:32;;;;;;;6.75;3.47;;;;;;;;;;4945403;28;20179;-42
2023/06/19 07:15:59;;;;;;;3.83;3.50;;;;;;;;;;4949804;28;20067;-45
2023/06/19 07:18:24;;;;;;;4.10;3.72;;;;;;;;;;4914979;29;20422;-44
2023/06/19 07:20:50;;;;;;;6.95;3.90;;;;;;;;;;4932055;28;20134;-42
2023/06/19 07:23:15;;;;;;;5.93;3.72;;;;;;;;;;4942248;28;20023;-41
2023/06/19 07:25:41;;;;;;;4.15;3.75;;;;;;;;;;4956045;28;20020;-45
2023/06/19 07:28:06;;;;;;;10.32;3.80;;;;;;;;;;4933831;29;20453;-44
2023/06/19 07:30:32;;;;;;;6.70;4.25;;;;;;;;;;4935321;29;20470;-41
2023/06/19 07:32:57;;;;;;;6.45;3.60;;;;;;;;;;4950410;28;20109;-43
2023/06/19 07:35:22;;;;;;;8.45;3.90;;;;;;;;;;4934161;28;20055;-43
2023/06/19 07:37:48;;;;;;;7.93;3.40;;;;;;;;;;4933779;28;20047;-40
2023/06/19 07:40:14;;;;;;;10.20;3.85;;;;;;;;;;4936986;29;20564;-42
2023/06/19 07:42:39;;;;;;;4.13;3.80;;;;;;;;;;4940915;28;20105;-41
2023/06/19 07:45:05;;;;;;;7.40;3.97;;;;;;;;;;4924457;28;20035;-41
2023/06/19 07:47:30;;;;;;;9.77;4.25;;;;;;;;;;4922469;28;20114;-45
2023/06/19 07:49:56;;;;;;;10.43;4.22;;;;;;;;;;4956907;28;20039;-42
2023/06/19 07:52:21;;;;;;;14.70;3.80;;;;;;;;;;4941544;28;20505;-45
2023/06/19 07:54:52;;;;;;;5.53;3.92;;;;;;;;;;4948710;28;20082;-43
2023/06/19 07:57:17;;;;;;;5.57;4.03;;;;;;;;;;4919859;28;20050;-43
2023/06/19 07:59:44;;;;;;;3.38;3.05;;;;;;;;;;4935863;28;20500;-41
2023/06/19 08:02:10;;;;;;;3.95;3.58;;;;;;;;;;4954921;28;20040;-41
2023/06/19 08:04:35;;;;;;;5.90;3.40;;;;;;;;;;4955621;28;20082;-42
2023/06/19 08:07:01;;;;;;;5.70;3.50;;;;;;;;;;4934041;29;20162;-43
2023/06/19 08:09:26;;;;;;;3.85;3.47;;;;;;;;;;4954921;28;20035;-41
2023/06/19 08:11:52;;;;;;;5.38;2.97;;;;;;;;;;4924997;28;20038;-42
2023/06/19 08:14:17;;;;;;;9.07;3.17;;;;;;;;;;4949361;29;20035;-41
2023/06/19 08:16:42;;;;;;;5.43;3.10;;;;;;;;;;4939032;28;20042;-43
2023/06/19 08:19:08;;;;;;;3.35;2.97;;;;;;;;;;4938977;29;20036;-45
2023/06/19 08:21:33;;;;;;;4.10;3.33;;;;;;;;;;4941263;29;20039;-43
2023/06/19 08:23:59;;;;;;;6.60;3.58;;;;;;;;;;4943091;29;20016;-41
2023/06/19 08:26:24;;;;;;;5.03;3.28;;;;;;;;;;4934491;28;20035;-44
2023/06/19 08:28:49;;;;;;;4.50;3.70;;;;;;;;;;4947255;28;20057;-42
2023/06/19 08:31:16;;;;;;;5.45;3.35;;;;;;;;;;4950713;28;20043;-42
2023/06/19 08:33:42;;;;;;;3.88;3.50;;;;;;;;;;4919354;28;20060;-44
2023/06/19 08:36:07;;;;;;;6.45;3.35;;;;;;;;;;4917791;29;20051;-43
2023/06/19 08:38:32;;;;;;;5.18;3.40;;;;;;;;;;4934821;28;20032;-42
2023/06/19 08:40:59;;;;;;;4.47;3.50;;;;;;;;;;4937210;28;20044;-41
2023/06/19 08:43:24;;;;;;;10.52;3.60;;;;;;;;;;4935196;29;20039;-42
2023/06/19 08:46:09;;;;;;;8.85;3.63;;;;;;;;;;4946945;28;20042;-41
2023/06/19 08:48:36;;;;;;;7.43;3.67;;;;;;;;;;4961269;28;20031;-44
2023/06/19 08:51:04;;;;;;;6.97;3.20;;;;;;;;;;4957214;28;20082;-40
2023/06/19 08:53:29;;;;;;;5.60;3.72;;;;;;;;;;4930608;29;20114;-44
2023/06/19 08:55:57;;;;;;;3.60;3.20;;;;;;;;;;4930338;28;20125;-42
2023/06/19 08:58:23;;;;;;;10.43;3.78;;;;;;;;;;4935573;28;20042;-44
2023/06/19 09:00:49;;;;;;;4.57;3.40;;;;;;;;;;4931503;28;20454;-42
2023/06/19 09:03:21;;;;;;;6.22;3.80;;;;;;;;;;4932378;28;20098;-43
2023/06/19 09:05:49;;;;;;;10.98;3.80;;;;;;;;;;4938638;28;20028;-42
2023/06/19 09:08:18;;;;;;;7.88;3.95;;;;;;;;;;4926138;28;20066;-41
2023/06/19 09:10:55;;;;;;;4.00;3.55;;;;;;;;;;4927026;28;20103;-41
2023/06/19 09:13:20;;;;;;;9.30;3.90;;;;;;;;;;4958065;28;20493;-42
2023/06/19 09:15:46;;;;;;;9.48;3.88;;;;;;;;;;4915468;28;20042;-41
2023/06/19 09:18:12;;;;;;;3.75;3.35;;;;;;;;;;4945741;29;20031;-42
2023/06/19 09:20:47;;;;;;;5.80;3.28;;;;;;;;;;4932048;28;20032;-41
2023/06/19 09:23:13;;;;;;;9.60;3.58;;;;;;;;;;4949302;28;20024;-45
2023/06/19 09:26:04;;;;;;;3.88;3.03;;;;;;;;;;4951001;28;20041;-45
2023/06/19 09:28:31;;;;;;;10.05;3.50;;;;;;;;;;4934133;28;20036;-42
2023/06/19 09:31:00;;;;;;;3.50;3.20;;;;;;;;;;4934553;28;20040;-42
2023/06/19 09:33:29;;;;;;;8.38;3.88;;;;;;;;;;4965640;28;20027;-41
2023/06/19 09:35:56;;;;;;;6.13;3.53;;;;;;;;;;4966787;28;20127;-42
2023/06/19 09:38:26;;;;;;;5.60;3.28;;;;;;;;;;4923656;28;20452;-43
2023/06/19 09:40:53;;;;;;;6.32;3.20;;;;;;;;;;4934214;28;20036;-41
2023/06/19 09:43:25;;;;;;;7.45;3.33;;;;;;;;;;4936549;28;20485;-42
2023/06/19 09:45:50;;;;;;;;;;;;;;;;;;4933992;28;20043;-43
2023/06/19 09:48:20;;;;;;;4.38;3.50;;;;;;;;;;4956361;28;19914;-42
2023/06/19 09:50:50;;;;;;;4.88;3.50;;;;;;;;;;4935512;28;20126;-45
2023/06/19 09:53:17;;;;;;;7.25;3.75;;;;;;;;;;4933593;28;20624;-43
2023/06/19 09:55:42;;;;;;;4.78;3.60;;;;;;;;;;4951294;28;20038;-42
2023/06/19 09:58:09;;;;;;;6.38;4.03;;;;;;;;;;4937843;28;20116;-42
2023/06/19 10:00:37;;;;;;;7.57;3.65;;;;;;;;;;4954877;28;20059;-43
2023/06/19 10:03:04;;;;;;;6.75;3.65;;;;;;;;;;4938676;28;20295;-43
2023/06/19 10:05:30;;;;;;;4.60;3.40;;;;;;;;;;4934915;28;20051;-43
2023/06/19 10:08:00;;;;;;;3.92;3.50;;;;;;;;;;4955945;28;20035;-44
2023/06/19 10:10:27;;;;;;;3.70;3.15;;;;;;;;;;4935324;28;20036;-42
2023/06/19 10:12:58;;;;;;;3.35;3.13;;;;;;;;;;4929477;28;20067;-44
2023/06/19 10:15:25;;;;;;;4.32;3.55;;;;;;;;;;4936474;28;20031;-43
2023/06/19 10:17:51;;;;;;;3.47;3.17;;;;;;;;;;4935598;28;20111;-42
2023/06/19 10:20:23;;;;;;;9.60;4.15;;;;;;;;;;4932052;28;20036;-45
2023/06/19 10:23:13;;;;;;;5.70;3.85;;;;;;;;;;4932320;28;20032;-42
2023/06/19 10:25:43;;;;;;;4.95;3.40;;;;;;;;;;4937959;28;20043;-47
2023/06/19 10:28:23;;;;;;;7.05;3.47;;;;;;;;;;4935051;29;20035;-45
2023/06/19 10:30:59;;;;;;;4.00;3.60;;;;;;;;;;4925879;28;20032;-41
2023/06/19 10:33:30;;;;;;;5.30;3.78;;;;;;;;;;4962493;28;20028;-42
2023/06/19 10:35:56;;;;;;;4.43;3.70;;;;;;;;;;4915392;28;20046;-41
2023/06/19 10:38:21;;;;;;;6.43;3.55;;;;;;;;;;4934163;29;20126;-42
2023/06/19 10:40:47;;;;;;;9.95;3.55;;;;;;;;;;4919289;28;20102;-43
2023/06/19 10:43:21;;;;;;;4.38;3.70;;;;;;;;;;4933533;28;20104;-42
2023/06/19 10:45:46;;;;;;;4.18;3.58;;;;;;;;;;4936559;28;20035;-41
2023/06/19 10:48:22;;;;;;;7.60;3.95;;;;;;;;;;4954147;28;20039;-44
2023/06/19 10:50:48;;;;;;;4.20;3.80;;;;;;;;;;4930946;29;20032;-42
2023/06/19 10:53:24;;;;;;;7.55;3.83;;;;;;;;;;4934558;28;20024;-42
2023/06/19 10:55:55;;;;;;;4.15;3.70;;;;;;;;;;4963117;28;20177;-42
2023/06/19 10:58:21;;;;;;;5.55;3.55;;;;;;;;;;4955384;28;20465;-43
2023/06/19 11:00:46;;;;;;;4.10;3.72;;;;;;;;;;4924183;28;20039;-45
2023/06/19 11:03:12;;;;;;;8.27;3.83;;;;;;;;;;4928747;28;20027;-42
2023/06/19 11:05:43;;;;;;;5.70;3.60;;;;;;;;;;4947496;28;20066;-43
2023/06/19 11:08:09;;;;;;;4.22;3.72;;;;;;;;;;4933563;28;20026;-42
2023/06/19 11:10:34;;;;;;;8.10;3.92;;;;;;;;;;4936208;28;20087;-42
2023/06/19 11:13:00;;;;;;;6.15;3.80;;;;;;;;;;4968780;28;20375;-42
2023/06/19 11:15:33;;;;;;;4.72;3.50;;;;;;;;;;4947294;28;20090;-42
2023/06/19 11:18:00;;;;;;;9.23;3.28;;;;;;;;;;4923814;28;20044;-42
2023/06/19 11:20:27;;;;;;;4.70;3.65;;;;;;;;;;4934868;28;20081;-42
2023/06/19 11:23:00;;;;;;;5.10;3.33;;;;;;;;;;4919263;28;20151;-43
2023/06/19 11:25:37;;;;;;;11.95;3.97;;;;;;;;;;4928867;29;20023;-43
2023/06/19 11:28:04;;;;;;;4.00;3.25;;;;;;;;;;4932590;29;20040;-42
2023/06/19 11:30:33;;;;;;;3.75;3.45;;;;;;;;;;4933603;28;20031;-42
2023/06/19 11:33:00;;;;;;;6.57;3.80;;;;;;;;;;4913289;28;20425;-44
2023/06/19 11:35:34;;;;;;;7.00;3.20;;;;;;;;;;4934468;29;20113;-43
2023/06/19 11:37:59;;;;;;;7.00;3.53;;;;;;;;;;4935869;28;20040;-43
2023/06/19 11:40:25;;;;;;;5.78;3.60;;;;;;;;;;4929840;28;20034;-43
2023/06/19 11:42:53;;;;;;;5.07;3.83;;;;;;;;;;4933696;29;20044;-42
2023/06/19 11:45:19;;;;;;;5.10;3.75;;;;;;;;;;4963877;28;20042;-43
2023/06/19 11:47:46;;;;;;;3.70;3.40;;;;;;;;;;4932375;28;20111;-43
2023/06/19 11:50:13;;;;;;;4.60;2.92;;;;;;;;;;4929846;28;20126;-44
2023/06/19 11:52:39;;;;;;;8.88;3.50;;;;;;;;;;4938837;28;20043;-43
2023/06/19 11:55:05;;;;;;;5.60;3.22;;;;;;;;;;4932625;28;20061;-42
2023/06/19 11:57:32;;;;;;;7.80;3.97;;;;;;;;;;4931539;28;20440;-42
2023/06/19 11:59:58;;;;;;;5.20;4.03;;;;;;;;;;4931468;28;20039;-43
2023/06/19 12:02:23;;;;;;;4.70;3.80;;;;;;;;;;4960820;28;20040;-44
2023/06/19 12:04:49;;;;;;;4.82;3.75;;;;;;;;;;4932873;28;20427;-42
2023/06/19 12:07:15;;;;;;;4.55;3.50;;;;;;;;;;4966829;28;20040;-42
2023/06/19 12:09:43;;;;;;;3.92;3.15;;;;;;;;;;4952083;28;20036;-42
2023/06/19 12:12:09;;;;;;;3.85;3.55;;;;;;;;;;4935138;28;20509;-44
2023/06/19 12:14:34;;;;;;;8.55;3.92;;;;;;;;;;4961332;28;20031;-42
2023/06/19 12:16:59;;;;;;;11.07;4.00;;;;;;;;;;4946933;28;20405;-43
2023/06/19 12:19:26;;;;;;;7.50;3.85;;;;;;;;;;4944009;28;20047;-43
2023/06/19 12:21:51;;;;;;;7.82;3.72;;;;;;;;;;4930408;28;20063;-43
2023/06/19 12:24:16;;;;;;;4.88;3.53;;;;;;;;;;4936687;28;20043;-43
2023/06/19 12:26:42;;;;;;;7.25;3.50;;;;;;;;;;4949605;28;20034;-43
2023/06/19 12:29:07;;;;;;;8.45;3.60;;;;;;;;;;4945862;28;20120;-42
2023/06/19 12:31:34;;;;;;;4.15;3.33;;;;;;;;;;4941630;28;20102;-42
2023/06/19 12:34:01;;;;;;;4.18;3.25;;;;;;;;;;4929593;28;20048;-43
2023/06/19 12:36:27;;;;;;;6.20;3.67;;;;;;;;;;4936908;28;20093;-42
2023/06/19 12:38:53;;;;;;;6.55;3.58;;;;;;;;;;4920380;28;20039;-42
2023/06/19 12:41:22;;;;;;;5.85;3.50;;;;;;;;;;4935252;28;20050;-41
2023/06/19 12:43:47;;;;;;;4.97;3.45;;;;;;;;;;4935689;28;20611;-42
2023/06/19 12:46:14;;;;;;;7.20;4.10;;;;;;;;;;4942604;28;20107;-45
2023/06/19 12:48:40;;;;;;;4.75;3.70;;;;;;;;;;4943516;28;20026;-43
2023/06/19 12:51:06;;;;;;;5.93;3.95;;;;;;;;;;4936119;28;20051;-42
2023/06/19 12:53:31;;;;;;;3.78;3.40;;;;;;;;;;4934678;29;20061;-45
2023/06/19 12:55:57;;;;;;;4.32;3.90;;;;;;;;;;4984619;28;20039;-43
2023/06/19 12:58:23;;;;;;;8.10;4.20;;;;;;;;;;4936081;29;20081;-42
2023/06/19 13:00:48;;;;;;;4.68;4.00;;;;;;;;;;4919375;28;20935;-42
2023/06/19 13:03:14;;;;;;;4.70;3.58;;;;;;;;;;4951820;28;20033;-42
2023/06/19 13:05:39;;;;;;;4.40;4.00;;;;;;;;;;4926988;28;20032;-42
2023/06/19 13:08:05;;;;;;;4.57;3.80;;;;;;;;;;4919891;28;20024;-44
2023/06/19 13:10:30;;;;;;;4.30;3.72;;;;;;;;;;4934162;28;20028;-42
2023/06/19 13:12:58;;;;;;;5.25;3.85;;;;;;;;;;4949866;28;20043;-43
2023/06/19 13:15:23;;;;;;;9.38;3.92;;;;;;;;;;4940925;28;20402;-46
2023/06/19 13:17:49;;;;;;;7.10;3.28;;;;;;;;;;4934291;28;20032;-43
2023/06/19 13:20:15;;;;;;;4.60;3.70;;;;;;;;;;4936733;29;20055;-44
2023/06/19 13:22:40;;;;;;;6.63;3.70;;;;;;;;;;4932058;28;20059;-42
2023/06/19 13:25:06;;;;;;;5.75;3.88;;;;;;;;;;4933828;29;20054;-45
2023/06/19 13:27:32;;;;;;;10.70;4.05;;;;;;;;;;4950177;28;20173;-41
2023/06/19 13:29:59;;;;;;;9.95;3.85;;;;;;;;;;4919285;28;20051;-43
2023/06/19 13:32:25;;;;;;;6.00;3.53;;;;;;;;;;4931709;28;20044;-41
2023/06/19 13:34:50;;;;;;;13.27;4.03;;;;;;;;;;4941271;28;20135;-42
2023/06/19 13:37:15;;;;;;;5.68;3.58;;;;;;;;;;4933828;29;20417;-45
2023/06/19 13:39:41;;;;;;;8.60;3.60;;;;;;;;;;4918182;28;20055;-44
2023/06/19 13:42:07;;;;;;;8.63;4.35;;;;;;;;;;4934006;29;20098;-44
2023/06/19 13:44:32;;;;;;;5.05;3.90;;;;;;;;;;4920017;28;20058;-42
2023/06/19 13:46:57;;;;;;;3.38;3.17;;;;;;;;;;4934370;28;20064;-42
2023/06/19 13:49:23;;;;;;;5.20;3.88;;;;;;;;;;4931530;28;20477;-42
2023/06/19 13:51:48;;;;;;;4.30;3.30;;;;;;;;;;4917358;28;20105;-43
2023/06/19 13:54:14;;;;;;;5.28;3.20;;;;;;;;;;4915643;28;20051;-42
2023/06/19 13:56:40;;;;;;;3.20;3.00;;;;;;;;;;4933847;28;20047;-44
2023/06/19 13:59:06;;;;;;;6.63;2.97;;;;;;;;;;4936400;29;20034;-44
2023/06/19 14:01:32;;;;;;;3.47;3.17;;;;;;;;;;4917297;28;20433;-42
2023/06/19 14:03:58;;;;;;;11.38;3.33;;;;;;;;;;4934116;29;20034;-42
2023/06/19 14:06:24;;;;;;;4.20;3.22;;;;;;;;;;4936385;29;20044;-42
2023/06/19 14:08:49;;;;;;;5.93;3.28;;;;;;;;;;4977050;28;20028;-44
2023/06/19 14:11:15;;;;;;;3.22;3.00;;;;;;;;;;4933974;28;20070;-42
2023/06/19 14:13:40;;;;;;;3.85;2.88;;;;;;;;;;4933273;28;20035;-44
2023/06/19 14:16:06;;;;;;;7.65;3.25;;;;;;;;;;4943326;28;20046;-45
2023/06/19 14:18:33;;;;;;;4.43;3.17;;;;;;;;;;4949059;28;20421;-41
2023/06/19 14:20:58;;;;;;;3.10;2.90;;;;;;;;;;4934508;28;20043;-42
2023/06/19 14:23:24;;;;;;;3.20;2.90;;;;;;;;;;4917980;28;20020;-45
2023/06/19 14:25:49;;;;;;;10.10;3.42;;;;;;;;;;4939135;28;20038;-43
2023/06/19 14:28:14;;;;;;;5.50;3.63;;;;;;;;;;4933152;28;20019;-45
2023/06/19 14:30:40;;;;;;;8.68;4.15;;;;;;;;;;4928717;28;20076;-41
2023/06/19 14:33:06;;;;;;;6.30;4.00;;;;;;;;;;4939095;28;20024;-43
2023/06/19 14:35:32;;;;;;;6.75;4.05;;;;;;;;;;4934054;29;20058;-43
2023/06/19 14:37:57;;;;;;;9.50;4.30;;;;;;;;;;4980471;28;20052;-44
2023/06/19 14:40:23;;;;;;;9.88;4.13;;;;;;;;;;4931322;28;20166;-47